sensor_id;sensor_type;location;lat;lon;timestamp;pressure;altitude;pressure_sealevel;temperature;humidity
71567;BME280;59403;47.456;19.120;2023-05-21T00:00:02;100409.81;;;17.42;90.87
71567;BME280;59403;47.456;19.120;2023-05-21T00:02:32;100418.09;;;17.47;90.16
71567;BME280;59403;47.456;19.120;2023-05-21T00:05:00;100413.13;;;17.44;90.61
71567;BME280;59403;47.456;19.120;2023-05-21T00:07:27;100416.44;;;17.46;90.01
71567;BME280;59403;47.456;19.120;2023-05-21T00:09:56;100422.16;;;17.43;90.49
71567;BME280;59403;47.456;19.120;2023-05-21T00:12:23;100416.81;;;17.43;90.05
71567;BME280;59403;47.456;19.120;2023-05-21T00:14:51;100417.00;;;17.41;89.93
71567;BME280;59403;47.456;19.120;2023-05-21T00:17:18;100422.56;;;17.40;89.84
71567;BME280;59403;47.456;19.120;2023-05-21T00:19:44;100418.25;;;17.39;89.99
71567;BME280;59403;47.456;19.120;2023-05-21T00:22:12;100410.00;;;17.34;90.23
71567;BME280;59403;47.456;19.120;2023-05-21T00:24:40;100416.97;;;17.28;90.48
71567;BME280;59403;47.456;19.120;2023-05-21T00:27:07;100415.72;;;17.31;90.28
71567;BME280;59403;47.456;19.120;2023-05-21T00:29:34;100412.44;;;17.29;90.23
71567;BME280;59403;47.456;19.120;2023-05-21T00:32:02;100416.53;;;17.25;90.69
71567;BME280;59403;47.456;19.120;2023-05-21T00:34:29;100416.13;;;17.21;91.53
71567;BME280;59403;47.456;19.120;2023-05-21T00:36:56;100421.44;;;17.15;92.18
71567;BME280;59403;47.456;19.120;2023-05-21T00:39:23;100415.03;;;17.09;92.65
71567;BME280;59403;47.456;19.120;2023-05-21T00:41:50;100418.47;;;17.03;93.59
71567;BME280;59403;47.456;19.120;2023-05-21T00:44:17;100408.59;;;16.97;94.72
71567;BME280;59403;47.456;19.120;2023-05-21T00:46:45;100405.47;;;16.93;94.59
71567;BME280;59403;47.456;19.120;2023-05-21T00:49:14;100408.28;;;16.85;95.22
71567;BME280;59403;47.456;19.120;2023-05-21T00:51:41;100406.81;;;16.76;96.01
71567;BME280;59403;47.456;19.120;2023-05-21T00:54:09;100417.84;;;16.67;97.04
71567;BME280;59403;47.456;19.120;2023-05-21T00:56:37;100418.22;;;16.57;98.10
71567;BME280;59403;47.456;19.120;2023-05-21T00:59:04;100415.72;;;16.56;98.58
71567;BME280;59403;47.456;19.120;2023-05-21T01:06:37;100408.41;;;16.43;99.97
71567;BME280;59403;47.456;19.120;2023-05-21T01:09:05;100401.59;;;16.41;100.00
71567;BME280;59403;47.456;19.120;2023-05-21T01:11:37;100399.75;;;16.41;100.00
71567;BME280;59403;47.456;19.120;2023-05-21T01:14:05;100404.03;;;16.36;99.98
71567;BME280;59403;47.456;19.120;2023-05-21T01:16:36;100406.69;;;16.36;99.68
71567;BME280;59403;47.456;19.120;2023-05-21T01:19:05;100401.78;;;16.39;99.32
71567;BME280;59403;47.456;19.120;2023-05-21T01:21:41;100408.41;;;16.43;98.78
71567;BME280;59403;47.456;19.120;2023-05-21T01:24:11;100404.91;;;16.43;99.01
71567;BME280;59403;47.456;19.120;2023-05-21T01:26:39;100398.91;;;16.41;98.66
71567;BME280;59403;47.456;19.120;2023-05-21T01:29:07;100403.00;;;16.37;98.88
71567;BME280;59403;47.456;19.120;2023-05-21T01:31:47;100401.97;;;16.38;98.33
71567;BME280;59403;47.456;19.120;2023-05-21T01:34:20;100403.19;;;16.35;98.36
71567;BME280;59403;47.456;19.120;2023-05-21T01:36:54;100409.38;;;16.36;98.73
71567;BME280;59403;47.456;19.120;2023-05-21T01:39:28;100414.47;;;16.31;99.50
71567;BME280;59403;47.456;19.120;2023-05-21T01:41:56;100389.53;;;16.24;99.49
71567;BME280;59403;47.456;19.120;2023-05-21T01:44:24;100405.12;;;16.20;100.00
71567;BME280;59403;47.456;19.120;2023-05-21T01:46:53;100414.50;;;16.10;100.00
71567;BME280;59403;47.456;19.120;2023-05-21T01:49:22;100407.31;;;16.10;100.00
71567;BME280;59403;47.456;19.120;2023-05-21T01:51:50;100406.66;;;16.08;100.00
71567;BME280;59403;47.456;19.120;2023-05-21T01:54:17;100404.50;;;15.97;100.00
71567;BME280;59403;47.456;19.120;2023-05-21T01:56:45;100402.97;;;15.88;100.00
71567;BME280;59403;47.456;19.120;2023-05-21T01:59:12;100404.00;;;15.87;100.00
71567;BME280;59403;47.456;19.120;2023-05-21T02:01:39;100402.56;;;15.84;100.00
71567;BME280;59403;47.456;19.120;2023-05-21T02:04:06;100408.91;;;15.83;100.00
71567;BME280;59403;47.456;19.120;2023-05-21T02:06:33;100406.81;;;15.79;100.00
71567;BME280;59403;47.456;19.120;2023-05-21T02:09:01;100399.72;;;15.71;100.00
71567;BME280;59403;47.456;19.120;2023-05-21T02:11:28;100401.88;;;15.61;100.00
71567;BME280;59403;47.456;19.120;2023-05-21T02:13:57;100400.59;;;15.57;100.00
71567;BME280;59403;47.456;19.120;2023-05-21T02:16:24;100397.09;;;15.57;100.00
71567;BME280;59403;47.456;19.120;2023-05-21T02:18:51;100399.06;;;15.48;100.00
71567;BME280;59403;47.456;19.120;2023-05-21T02:21:21;100394.31;;;15.44;100.00
71567;BME280;59403;47.456;19.120;2023-05-21T02:23:48;100398.00;;;15.43;100.00
71567;BME280;59403;47.456;19.120;2023-05-21T02:26:15;100401.19;;;15.38;100.00
71567;BME280;59403;47.456;19.120;2023-05-21T02:28:42;100408.72;;;15.35;100.00
71567;BME280;59403;47.456;19.120;2023-05-21T02:31:11;100396.13;;;15.43;100.00
71567;BME280;59403;47.456;19.120;2023-05-21T02:33:39;100408.03;;;15.41;100.00
71567;BME280;59403;47.456;19.120;2023-05-21T02:36:06;100401.28;;;15.45;100.00
71567;BME280;59403;47.456;19.120;2023-05-21T02:38:37;100397.81;;;15.44;100.00
71567;BME280;59403;47.456;19.120;2023-05-21T02:41:05;100396.59;;;15.47;100.00
71567;BME280;59403;47.456;19.120;2023-05-21T02:43:32;100393.37;;;15.51;100.00
71567;BME280;59403;47.456;19.120;2023-05-21T02:45:59;100394.56;;;15.49;100.00
71567;BME280;59403;47.456;19.120;2023-05-21T02:48:27;100400.72;;;15.49;100.00
71567;BME280;59403;47.456;19.120;2023-05-21T02:50:54;100400.03;;;15.41;100.00
71567;BME280;59403;47.456;19.120;2023-05-21T02:53:20;100393.84;;;15.40;100.00
71567;BME280;59403;47.456;19.120;2023-05-21T02:55:47;100395.12;;;15.44;100.00
71567;BME280;59403;47.456;19.120;2023-05-21T02:58:14;100404.34;;;15.42;100.00
71567;BME280;59403;47.456;19.120;2023-05-21T03:00:41;100402.38;;;15.50;100.00
71567;BME280;59403;47.456;19.120;2023-05-21T03:03:08;100398.59;;;15.45;100.00
71567;BME280;59403;47.456;19.120;2023-05-21T03:05:37;100401.28;;;15.45;100.00
71567;BME280;59403;47.456;19.120;2023-05-21T03:08:04;100403.00;;;15.38;100.00
71567;BME280;59403;47.456;19.120;2023-05-21T03:10:31;100394.94;;;15.31;100.00
71567;BME280;59403;47.456;19.120;2023-05-21T03:12:57;100389.59;;;15.31;100.00
71567;BME280;59403;47.456;19.120;2023-05-21T03:15:25;100390.44;;;15.32;100.00
71567;BME280;59403;47.456;19.120;2023-05-21T03:17:51;100390.81;;;15.29;100.00
71567;BME280;59403;47.456;19.120;2023-05-21T03:20:19;100389.91;;;15.22;100.00
71567;BME280;59403;47.456;19.120;2023-05-21T03:22:48;100391.81;;;15.28;100.00
71567;BME280;59403;47.456;19.120;2023-05-21T03:25:14;100388.94;;;15.29;100.00
71567;BME280;59403;47.456;19.120;2023-05-21T03:27:41;100398.38;;;15.25;100.00
71567;BME280;59403;47.456;19.120;2023-05-21T03:30:09;100390.97;;;15.27;100.00
71567;BME280;59403;47.456;19.120;2023-05-21T03:32:36;100387.50;;;15.27;100.00
71567;BME280;59403;47.456;19.120;2023-05-21T03:35:03;100398.53;;;15.24;100.00
71567;BME280;59403;47.456;19.120;2023-05-21T03:37:31;100397.06;;;15.21;100.00
71567;BME280;59403;47.456;19.120;2023-05-21T03:39:59;100394.59;;;15.20;100.00
71567;BME280;59403;47.456;19.120;2023-05-21T03:42:26;100397.16;;;15.28;100.00
71567;BME280;59403;47.456;19.120;2023-05-21T03:44:53;100395.97;;;15.30;100.00
71567;BME280;59403;47.456;19.120;2023-05-21T03:47:19;100404.69;;;15.39;100.00
71567;BME280;59403;47.456;19.120;2023-05-21T03:49:46;100398.25;;;15.48;100.00
71567;BME280;59403;47.456;19.120;2023-05-21T03:52:13;100403.66;;;15.54;100.00
71567;BME280;59403;47.456;19.120;2023-05-21T03:54:40;100405.00;;;15.65;100.00
71567;BME280;59403;47.456;19.120;2023-05-21T03:57:08;100413.09;;;15.71;100.00
71567;BME280;59403;47.456;19.120;2023-05-21T03:59:35;100411.91;;;15.74;100.00
71567;BME280;59403;47.456;19.120;2023-05-21T04:02:02;100413.25;;;15.84;100.00
71567;BME280;59403;47.456;19.120;2023-05-21T04:04:29;100422.41;;;15.97;100.00
71567;BME280;59403;47.456;19.120;2023-05-21T04:06:58;100425.56;;;16.07;100.00
71567;BME280;59403;47.456;19.120;2023-05-21T04:09:25;100427.53;;;16.19;100.00
71567;BME280;59403;47.456;19.120;2023-05-21T04:11:52;100420.25;;;16.34;100.00
71567;BME280;59403;47.456;19.120;2023-05-21T04:14:21;100419.75;;;16.45;97.29
71567;BME280;59403;47.456;19.120;2023-05-21T04:16:48;100424.97;;;16.53;97.10
71567;BME280;59403;47.456;19.120;2023-05-21T04:19:15;100420.56;;;16.73;93.95
71567;BME280;59403;47.456;19.120;2023-05-21T04:21:42;100425.09;;;16.73;94.10
71567;BME280;59403;47.456;19.120;2023-05-21T04:24:09;100413.56;;;16.72;94.24
71567;BME280;59403;47.456;19.120;2023-05-21T04:26:36;100423.63;;;16.70;95.05
71567;BME280;59403;47.456;19.120;2023-05-21T04:29:06;100424.47;;;16.71;95.46
71567;BME280;59403;47.456;19.120;2023-05-21T04:31:35;100429.41;;;16.74;95.55
71567;BME280;59403;47.456;19.120;2023-05-21T04:34:02;100424.06;;;16.74;96.63
71567;BME280;59403;47.456;19.120;2023-05-21T04:36:29;100425.53;;;16.76;96.12
71567;BME280;59403;47.456;19.120;2023-05-21T04:38:58;100428.13;;;16.97;92.59
71567;BME280;59403;47.456;19.120;2023-05-21T04:41:25;100416.44;;;17.05;92.96
71567;BME280;59403;47.456;19.120;2023-05-21T04:43:52;100416.94;;;17.22;90.41
71567;BME280;59403;47.456;19.120;2023-05-21T04:46:19;100418.53;;;17.50;87.06
71567;BME280;59403;47.456;19.120;2023-05-21T04:48:52;100412.41;;;17.69;84.42
71567;BME280;59403;47.456;19.120;2023-05-21T04:51:19;100414.91;;;18.03;79.20
71567;BME280;59403;47.456;19.120;2023-05-21T04:53:49;100411.22;;;17.98;81.20
71567;BME280;59403;47.456;19.120;2023-05-21T04:56:16;100408.75;;;18.09;78.99
71567;BME280;59403;47.456;19.120;2023-05-21T04:58:43;100408.97;;;18.08;79.43
71567;BME280;59403;47.456;19.120;2023-05-21T05:01:12;100410.22;;;18.25;77.37
71567;BME280;59403;47.456;19.120;2023-05-21T05:03:39;100401.75;;;18.22;77.88
71567;BME280;59403;47.456;19.120;2023-05-21T05:06:07;100407.53;;;18.12;79.54
71567;BME280;59403;47.456;19.120;2023-05-21T05:08:34;100407.94;;;18.16;80.37
71567;BME280;59403;47.456;19.120;2023-05-21T05:11:01;100403.81;;;18.20;79.04
71567;BME280;59403;47.456;19.120;2023-05-21T05:13:28;100403.19;;;18.37;77.07
71567;BME280;59403;47.456;19.120;2023-05-21T05:15:55;100409.59;;;18.49;76.98
71567;BME280;59403;47.456;19.120;2023-05-21T05:18:22;100405.25;;;18.61;74.77
71567;BME280;59403;47.456;19.120;2023-05-21T05:20:49;100409.59;;;18.56;75.77
71567;BME280;59403;47.456;19.120;2023-05-21T05:23:17;100403.59;;;18.67;74.04
71567;BME280;59403;47.456;19.120;2023-05-21T05:25:44;100406.87;;;18.82;73.86
71567;BME280;59403;47.456;19.120;2023-05-21T05:28:10;100401.91;;;18.85;73.70
71567;BME280;59403;47.456;19.120;2023-05-21T05:30:37;100416.31;;;18.97;73.15
71567;BME280;59403;47.456;19.120;2023-05-21T05:33:04;100405.00;;;18.95;73.06
71567;BME280;59403;47.456;19.120;2023-05-21T05:35:31;100400.44;;;19.02;72.97
71567;BME280;59403;47.456;19.120;2023-05-21T05:37:58;100409.69;;;19.06;73.23
71567;BME280;59403;47.456;19.120;2023-05-21T05:40:26;100411.97;;;19.09;72.74
71567;BME280;59403;47.456;19.120;2023-05-21T05:42:53;100409.50;;;19.08;73.06
71567;BME280;59403;47.456;19.120;2023-05-21T05:45:20;100407.22;;;19.18;71.36
71567;BME280;59403;47.456;19.120;2023-05-21T05:47:46;100406.97;;;19.26;71.06
71567;BME280;59403;47.456;19.120;2023-05-21T05:50:13;100398.47;;;19.29;70.88
71567;BME280;59403;47.456;19.120;2023-05-21T05:52:40;100406.50;;;19.42;70.61
71567;BME280;59403;47.456;19.120;2023-05-21T05:55:08;100408.94;;;19.50;70.54
71567;BME280;59403;47.456;19.120;2023-05-21T05:57:38;100401.00;;;19.62;71.29
71567;BME280;59403;47.456;19.120;2023-05-21T06:00:06;100405.53;;;19.68;73.00
71567;BME280;59403;47.456;19.120;2023-05-21T06:02:34;100400.56;;;19.71;71.62
71567;BME280;59403;47.456;19.120;2023-05-21T06:05:02;100396.59;;;19.74;70.02
71567;BME280;59403;47.456;19.120;2023-05-21T06:07:29;100400.69;;;19.83;69.87
71567;BME280;59403;47.456;19.120;2023-05-21T06:09:55;100402.91;;;19.92;69.86
71567;BME280;59403;47.456;19.120;2023-05-21T06:12:22;100400.78;;;20.01;68.35
71567;BME280;59403;47.456;19.120;2023-05-21T06:14:51;100403.19;;;20.09;67.97
71567;BME280;59403;47.456;19.120;2023-05-21T06:17:17;100400.00;;;20.25;68.24
71567;BME280;59403;47.456;19.120;2023-05-21T06:19:44;100398.31;;;20.30;67.11
71567;BME280;59403;47.456;19.120;2023-05-21T06:22:11;100389.87;;;20.45;68.32
71567;BME280;59403;47.456;19.120;2023-05-21T06:24:38;100383.94;;;20.61;66.23
71567;BME280;59403;47.456;19.120;2023-05-21T06:27:05;100386.47;;;20.56;66.26
71567;BME280;59403;47.456;19.120;2023-05-21T06:29:32;100381.25;;;20.61;65.58
71567;BME280;59403;47.456;19.120;2023-05-21T06:32:00;100377.91;;;20.66;65.61
71567;BME280;59403;47.456;19.120;2023-05-21T06:34:27;100378.81;;;20.78;65.98
71567;BME280;59403;47.456;19.120;2023-05-21T06:36:54;100377.91;;;20.84;64.28
71567;BME280;59403;47.456;19.120;2023-05-21T06:39:21;100372.91;;;20.87;63.93
71567;BME280;59403;47.456;19.120;2023-05-21T06:41:48;100377.13;;;21.19;63.99
71567;BME280;59403;47.456;19.120;2023-05-21T06:44:15;100372.53;;;21.20;64.05
71567;BME280;59403;47.456;19.120;2023-05-21T06:46:42;100375.19;;;21.08;62.95
71567;BME280;59403;47.456;19.120;2023-05-21T06:49:11;100379.50;;;21.27;62.90
71567;BME280;59403;47.456;19.120;2023-05-21T06:51:39;100371.97;;;21.48;62.89
71567;BME280;59403;47.456;19.120;2023-05-21T06:54:06;100380.06;;;21.48;62.23
71567;BME280;59403;47.456;19.120;2023-05-21T06:56:33;100376.37;;;21.90;62.72
71567;BME280;59403;47.456;19.120;2023-05-21T06:59:00;100367.03;;;22.04;61.85
71567;BME280;59403;47.456;19.120;2023-05-21T07:01:27;100366.66;;;22.12;63.18
71567;BME280;59403;47.456;19.120;2023-05-21T07:03:54;100364.12;;;22.17;60.22
71567;BME280;59403;47.456;19.120;2023-05-21T07:06:23;100363.84;;;21.95;59.73
71567;BME280;59403;47.456;19.120;2023-05-21T07:08:50;100356.13;;;22.10;59.10
71567;BME280;59403;47.456;19.120;2023-05-21T07:11:16;100363.28;;;22.28;60.93
71567;BME280;59403;47.456;19.120;2023-05-21T07:13:43;100358.25;;;22.31;60.83
71567;BME280;59403;47.456;19.120;2023-05-21T07:16:10;100356.97;;;22.45;60.59
71567;BME280;59403;47.456;19.120;2023-05-21T07:18:37;100358.97;;;22.50;60.27
71567;BME280;59403;47.456;19.120;2023-05-21T07:21:04;100356.75;;;22.70;59.21
71567;BME280;59403;47.456;19.120;2023-05-21T07:23:32;100354.81;;;22.94;59.82
71567;BME280;59403;47.456;19.120;2023-05-21T07:25:59;100350.66;;;22.63;57.50
71567;BME280;59403;47.456;19.120;2023-05-21T07:28:26;100354.06;;;22.70;57.39
71567;BME280;59403;47.456;19.120;2023-05-21T07:30:53;100351.88;;;22.95;57.65
71567;BME280;59403;47.456;19.120;2023-05-21T07:33:20;100359.19;;;22.83;57.92
71567;BME280;59403;47.456;19.120;2023-05-21T07:35:47;100360.47;;;23.04;57.07
71567;BME280;59403;47.456;19.120;2023-05-21T07:38:14;100359.69;;;22.80;56.26
71567;BME280;59403;47.456;19.120;2023-05-21T07:40:43;100349.78;;;22.97;57.67
71567;BME280;59403;47.456;19.120;2023-05-21T07:43:10;100354.38;;;23.25;57.72
71567;BME280;59403;47.456;19.120;2023-05-21T07:45:37;100357.47;;;23.17;56.67
71567;BME280;59403;47.456;19.120;2023-05-21T07:48:05;100346.38;;;23.41;56.83
71567;BME280;59403;47.456;19.120;2023-05-21T07:50:31;100351.19;;;23.68;56.41
71567;BME280;59403;47.456;19.120;2023-05-21T07:52:58;100359.56;;;23.38;56.36
71567;BME280;59403;47.456;19.120;2023-05-21T07:55:25;100343.38;;;23.54;55.72
71567;BME280;59403;47.456;19.120;2023-05-21T07:57:53;100342.00;;;23.52;55.44
71567;BME280;59403;47.456;19.120;2023-05-21T08:00:22;100342.91;;;23.57;56.04
71567;BME280;59403;47.456;19.120;2023-05-21T08:02:50;100342.00;;;23.52;55.36
71567;BME280;59403;47.456;19.120;2023-05-21T08:05:17;100337.97;;;23.54;56.39
71567;BME280;59403;47.456;19.120;2023-05-21T08:07:45;100343.25;;;23.61;55.54
71567;BME280;59403;47.456;19.120;2023-05-21T08:10:12;100354.00;;;23.89;55.47
71567;BME280;59403;47.456;19.120;2023-05-21T08:12:39;100351.09;;;23.62;54.67
71567;BME280;59403;47.456;19.120;2023-05-21T08:15:09;100345.69;;;23.62;55.55
71567;BME280;59403;47.456;19.120;2023-05-21T08:17:36;100347.84;;;23.77;55.21
71567;BME280;59403;47.456;19.120;2023-05-21T08:20:04;100352.37;;;23.88;55.66
71567;BME280;59403;47.456;19.120;2023-05-21T08:22:31;100353.31;;;24.10;56.64
71567;BME280;59403;47.456;19.120;2023-05-21T08:24:58;100351.41;;;24.27;55.46
71567;BME280;59403;47.456;19.120;2023-05-21T08:27:26;100359.84;;;23.98;54.50
71567;BME280;59403;47.456;19.120;2023-05-21T08:29:53;100360.44;;;24.00;55.23
71567;BME280;59403;47.456;19.120;2023-05-21T08:32:21;100350.28;;;24.23;56.44
71567;BME280;59403;47.456;19.120;2023-05-21T08:34:49;100352.81;;;24.30;54.56
71567;BME280;59403;47.456;19.120;2023-05-21T08:37:17;100346.00;;;24.44;54.96
71567;BME280;59403;47.456;19.120;2023-05-21T08:39:44;100351.22;;;24.50;56.28
71567;BME280;59403;47.456;19.120;2023-05-21T08:42:31;100359.37;;;24.34;53.07
71567;BME280;59403;47.456;19.120;2023-05-21T08:45:00;100369.88;;;24.47;53.28
71567;BME280;59403;47.456;19.120;2023-05-21T08:47:34;100354.63;;;24.41;53.85
71567;BME280;59403;47.456;19.120;2023-05-21T08:50:02;100350.06;;;24.63;52.69
71567;BME280;59403;47.456;19.120;2023-05-21T08:52:30;100358.87;;;24.70;53.91
71567;BME280;59403;47.456;19.120;2023-05-21T08:54:57;100346.66;;;24.89;53.85
71567;BME280;59403;47.456;19.120;2023-05-21T08:57:24;100350.75;;;24.92;53.27
71567;BME280;59403;47.456;19.120;2023-05-21T08:59:52;100347.91;;;25.25;52.31
71567;BME280;59403;47.456;19.120;2023-05-21T09:02:20;100346.75;;;25.16;53.00
71567;BME280;59403;47.456;19.120;2023-05-21T09:04:57;100346.13;;;25.35;52.12
71567;BME280;59403;47.456;19.120;2023-05-21T09:07:28;100348.38;;;25.38;50.56
71567;BME280;59403;47.456;19.120;2023-05-21T09:10:03;100351.03;;;25.12;50.94
71567;BME280;59403;47.456;19.120;2023-05-21T09:12:33;100348.63;;;25.37;52.15
71567;BME280;59403;47.456;19.120;2023-05-21T09:15:02;100348.53;;;25.32;49.83
71567;BME280;59403;47.456;19.120;2023-05-21T09:17:35;100338.34;;;25.17;49.63
71567;BME280;59403;47.456;19.120;2023-05-21T09:20:11;100343.50;;;25.19;49.18
71567;BME280;59403;47.456;19.120;2023-05-21T09:22:42;100341.38;;;25.69;49.30
71567;BME280;59403;47.456;19.120;2023-05-21T09:25:10;100339.56;;;25.53;49.58
71567;BME280;59403;47.456;19.120;2023-05-21T09:27:38;100335.50;;;25.50;49.78
71567;BME280;59403;47.456;19.120;2023-05-21T09:30:09;100331.47;;;25.58;48.76
71567;BME280;59403;47.456;19.120;2023-05-21T09:32:36;100334.84;;;25.97;48.53
71567;BME280;59403;47.456;19.120;2023-05-21T09:35:12;100342.78;;;25.71;47.76
71567;BME280;59403;47.456;19.120;2023-05-21T09:37:51;100327.31;;;25.77;47.29
71567;BME280;59403;47.456;19.120;2023-05-21T09:40:20;100332.81;;;25.82;48.92
71567;BME280;59403;47.456;19.120;2023-05-21T09:42:51;100349.16;;;26.19;47.74
71567;BME280;59403;47.456;19.120;2023-05-21T09:45:20;100338.94;;;25.99;48.11
71567;BME280;59403;47.456;19.120;2023-05-21T09:47:50;100340.22;;;25.92;47.46
71567;BME280;59403;47.456;19.120;2023-05-21T09:50:25;100342.09;;;26.18;47.56
71567;BME280;59403;47.456;19.120;2023-05-21T09:52:54;100342.78;;;26.03;47.11
71567;BME280;59403;47.456;19.120;2023-05-21T09:55:30;100340.91;;;25.77;46.06
71567;BME280;59403;47.456;19.120;2023-05-21T09:57:57;100330.47;;;25.91;46.96
71567;BME280;59403;47.456;19.120;2023-05-21T10:00:30;100334.75;;;26.13;48.84
71567;BME280;59403;47.456;19.120;2023-05-21T10:03:04;100329.31;;;25.87;46.53
71567;BME280;59403;47.456;19.120;2023-05-21T10:05:35;100335.22;;;26.05;47.63
71567;BME280;59403;47.456;19.120;2023-05-21T10:08:03;100329.66;;;25.95;46.54
71567;BME280;59403;47.456;19.120;2023-05-21T10:10:34;100334.28;;;25.95;44.73
71567;BME280;59403;47.456;19.120;2023-05-21T10:13:05;100323.59;;;26.10;45.67
71567;BME280;59403;47.456;19.120;2023-05-21T10:15:37;100309.78;;;26.16;46.08
71567;BME280;59403;47.456;19.120;2023-05-21T10:18:05;100321.53;;;26.27;46.56
71567;BME280;59403;47.456;19.120;2023-05-21T10:20:38;100316.41;;;26.30;45.94
71567;BME280;59403;47.456;19.120;2023-05-21T10:23:05;100313.50;;;26.47;46.08
71567;BME280;59403;47.456;19.120;2023-05-21T10:25:33;100304.31;;;26.53;44.48
71567;BME280;59403;47.456;19.120;2023-05-21T10:28:02;100303.53;;;26.16;44.18
71567;BME280;59403;47.456;19.120;2023-05-21T10:30:32;100302.34;;;26.43;44.24
71567;BME280;59403;47.456;19.120;2023-05-21T10:33:00;100305.28;;;26.78;44.93
71567;BME280;59403;47.456;19.120;2023-05-21T10:35:33;100304.19;;;26.74;45.96
71567;BME280;59403;47.456;19.120;2023-05-21T10:38:06;100313.41;;;26.68;43.02
71567;BME280;59403;47.456;19.120;2023-05-21T10:40:34;100299.62;;;26.95;43.77
71567;BME280;59403;47.456;19.120;2023-05-21T10:46:49;100302.13;;;26.97;42.93
71567;BME280;59403;47.456;19.120;2023-05-21T10:52:29;100299.72;;;27.10;43.75
71567;BME280;59403;47.456;19.120;2023-05-21T10:55:26;100300.22;;;27.02;42.67
71567;BME280;59403;47.456;19.120;2023-05-21T11:00:58;100297.13;;;27.50;43.94
71567;BME280;59403;47.456;19.120;2023-05-21T11:03:27;100291.56;;;27.20;44.14
71567;BME280;59403;47.456;19.120;2023-05-21T11:05:55;100291.91;;;27.39;43.23
71567;BME280;59403;47.456;19.120;2023-05-21T11:08:24;100290.84;;;27.35;44.01
71567;BME280;59403;47.456;19.120;2023-05-21T11:10:53;100282.84;;;27.03;43.04
71567;BME280;59403;47.456;19.120;2023-05-21T11:13:23;100284.59;;;27.44;42.96
71567;BME280;59403;47.456;19.120;2023-05-21T11:16:13;100291.25;;;27.02;40.21
71567;BME280;59403;47.456;19.120;2023-05-21T11:18:59;100291.56;;;27.15;39.62
71567;BME280;59403;47.456;19.120;2023-05-21T11:21:30;100289.72;;;27.31;39.92
71567;BME280;59403;47.456;19.120;2023-05-21T11:24:03;100283.53;;;27.65;40.48
71567;BME280;59403;47.456;19.120;2023-05-21T11:29:44;100277.53;;;27.78;41.23
71567;BME280;59403;47.456;19.120;2023-05-21T11:32:13;100286.16;;;27.25;40.38
71567;BME280;59403;47.456;19.120;2023-05-21T11:34:45;100293.03;;;27.53;40.18
71567;BME280;59403;47.456;19.120;2023-05-21T11:37:29;100279.41;;;27.38;41.04
71567;BME280;59403;47.456;19.120;2023-05-21T11:39:58;100284.84;;;27.43;41.06
71567;BME280;59403;47.456;19.120;2023-05-21T11:42:41;100283.25;;;27.62;40.75
71567;BME280;59403;47.456;19.120;2023-05-21T11:45:10;100277.53;;;27.68;42.85
71567;BME280;59403;47.456;19.120;2023-05-21T11:47:39;100273.97;;;27.68;41.54
71567;BME280;59403;47.456;19.120;2023-05-21T11:50:11;100282.44;;;27.86;40.17
71567;BME280;59403;47.456;19.120;2023-05-21T11:52:39;100276.19;;;27.61;40.86
71567;BME280;59403;47.456;19.120;2023-05-21T11:55:07;100277.00;;;27.86;40.98
71567;BME280;59403;47.456;19.120;2023-05-21T11:57:36;100271.00;;;28.10;40.01
71567;BME280;59403;47.456;19.120;2023-05-21T12:00:13;100257.37;;;27.49;40.92
71567;BME280;59403;47.456;19.120;2023-05-21T12:02:45;100254.28;;;27.06;43.05
71567;BME280;59403;47.456;19.120;2023-05-21T12:05:12;100258.66;;;26.50;43.88
71567;BME280;59403;47.456;19.120;2023-05-21T12:07:39;100263.00;;;27.23;43.82
71567;BME280;59403;47.456;19.120;2023-05-21T12:10:07;100250.25;;;27.28;42.57
71567;BME280;59403;47.456;19.120;2023-05-21T12:12:34;100254.94;;;27.98;42.82
71567;BME280;59403;47.456;19.120;2023-05-21T12:15:01;100247.59;;;27.38;41.49
71567;BME280;59403;47.456;19.120;2023-05-21T12:17:30;100245.19;;;26.70;43.54
71567;BME280;59403;47.456;19.120;2023-05-21T12:19:57;100243.97;;;27.23;43.63
71567;BME280;59403;47.456;19.120;2023-05-21T12:22:26;100245.34;;;27.15;44.03
71567;BME280;59403;47.456;19.120;2023-05-21T12:24:54;100247.81;;;26.55;44.62
71567;BME280;59403;47.456;19.120;2023-05-21T12:27:22;100246.09;;;26.91;44.23
71567;BME280;59403;47.456;19.120;2023-05-21T12:29:50;100235.00;;;27.17;42.76
71567;BME280;59403;47.456;19.120;2023-05-21T12:32:18;100237.19;;;27.25;41.67
71567;BME280;59403;47.456;19.120;2023-05-21T12:34:49;100244.31;;;27.31;42.16
71567;BME280;59403;47.456;19.120;2023-05-21T12:37:19;100239.41;;;27.73;41.97
71567;BME280;59403;47.456;19.120;2023-05-21T12:39:48;100232.09;;;27.64;41.96
71567;BME280;59403;47.456;19.120;2023-05-21T12:42:15;100229.38;;;27.59;43.83
71567;BME280;59403;47.456;19.120;2023-05-21T12:44:43;100225.81;;;27.48;40.32
71567;BME280;59403;47.456;19.120;2023-05-21T12:47:14;100229.06;;;27.85;39.44
71567;BME280;59403;47.456;19.120;2023-05-21T12:49:43;100225.53;;;27.90;40.94
71567;BME280;59403;47.456;19.120;2023-05-21T12:52:17;100219.81;;;27.66;40.93
71567;BME280;59403;47.456;19.120;2023-05-21T12:54:48;100220.91;;;27.75;41.73
71567;BME280;59403;47.456;19.120;2023-05-21T12:57:16;100213.56;;;27.76;41.24
71567;BME280;59403;47.456;19.120;2023-05-21T12:59:48;100213.28;;;27.92;41.58
71567;BME280;59403;47.456;19.120;2023-05-21T13:02:17;100208.88;;;27.26;40.94